Time;durP1;ratioP1;P1;durP2;ratioP2;P2;SDS_P1;SDS_P2;PMS_P1;PMS_P2;Temp;Humidity;BMP_temperature;BMP_pressure;BME280_temperature;BME280_humidity;BME280_pressure;Samples;Min_cycle;Max_cycle;Signal;HPM_P1;HPM_P2
2022/07/03 00:01:50;;;;;;;3.10;2.80;;;19.00;53.10;;;;;;5239220;28;20183;-49
2022/07/03 00:04:21;;;;;;;3.50;3.37;;;19.00;53.20;;;;;;5235129;28;20289;-50
2022/07/03 00:06:54;;;;;;;3.17;2.97;;;19.00;53.30;;;;;;5212953;28;20202;-50
2022/07/03 00:09:25;;;;;;;4.00;3.20;;;18.90;53.40;;;;;;5228368;28;20436;-48
2022/07/03 00:11:55;;;;;;;3.00;2.90;;;18.90;53.60;;;;;;5242744;28;20526;-49
2022/07/03 00:14:26;;;;;;;3.50;3.30;;;18.80;53.80;;;;;;5233421;28;20213;-49
2022/07/03 00:16:56;;;;;;;3.07;2.97;;;18.80;53.90;;;;;;5230832;28;20281;-49
2022/07/03 00:19:27;;;;;;;4.53;3.43;;;18.80;54.00;;;;;;5238851;28;20181;-48
2022/07/03 00:22:06;;;;;;;3.10;2.97;;;18.70;54.20;;;;;;5236122;28;20187;-49
2022/07/03 00:24:50;;;;;;;6.07;3.80;;;18.70;54.30;;;;;;5237362;28;20190;-50
2022/07/03 00:27:24;;;;;;;3.20;3.10;;;18.60;54.40;;;;;;5231475;28;20439;-50
2022/07/03 00:29:58;;;;;;;3.80;3.50;;;18.60;54.60;;;;;;5213922;28;20429;-49
2022/07/03 00:32:29;;;;;;;3.30;3.10;;;18.60;54.80;;;;;;5234649;28;20476;-49
2022/07/03 00:35:01;;;;;;;3.10;2.90;;;18.50;54.80;;;;;;5206920;28;20432;-51
2022/07/03 00:37:31;;;;;;;5.63;3.80;;;18.50;55.00;;;;;;5233966;28;20432;-50
2022/07/03 00:40:02;;;;;;;3.70;3.10;;;18.50;55.10;;;;;;5231114;28;20432;-49
2022/07/03 00:42:37;;;;;;;3.83;3.53;;;18.50;55.30;;;;;;5230567;28;20219;-47
2022/07/03 00:45:08;;;;;;;3.40;3.20;;;18.40;55.30;;;;;;5212187;28;20210;-47
2022/07/03 00:47:41;;;;;;;3.73;3.43;;;18.40;55.50;;;;;;5223092;28;20480;-49
2022/07/03 00:50:12;;;;;;;3.53;3.23;;;18.40;55.60;;;;;;5233894;28;20927;-49
2022/07/03 00:52:47;;;;;;;3.73;3.40;;;18.40;55.80;;;;;;5225948;28;20452;-48
2022/07/03 00:55:18;;;;;;;3.20;3.10;;;18.30;55.90;;;;;;5206023;28;20198;-49
2022/07/03 00:58:02;;;;;;;4.33;4.03;;;18.30;56.10;;;;;;5239171;28;20821;-50
2022/07/03 01:00:35;;;;;;;3.40;3.07;;;18.20;56.10;;;;;;5242967;28;20637;-49
2022/07/03 01:03:12;;;;;;;3.77;3.37;;;18.20;56.30;;;;;;5207839;28;20459;-49
2022/07/03 01:05:45;;;;;;;4.43;3.97;;;18.20;56.40;;;;;;5240279;28;20452;-48
2022/07/03 01:08:24;;;;;;;3.90;3.60;;;18.10;56.50;;;;;;5227076;28;20448;-49
2022/07/03 01:11:14;;;;;;;3.80;3.60;;;18.10;56.60;;;;;;5234481;28;20476;-49
2022/07/03 01:14:22;;;;;;;6.60;3.37;;;18.10;56.80;;;;;;5214843;28;20456;-50
2022/07/03 01:17:04;;;;;;;3.70;3.40;;;18.10;56.90;;;;;;5252893;28;20534;-49
2022/07/03 01:19:48;;;;;;;4.20;3.90;;;18.10;57.10;;;;;;5226101;28;20432;-49
2022/07/03 01:22:32;;;;;;;3.77;3.47;;;18.10;57.20;;;;;;5240670;28;20444;-49
2022/07/03 01:25:24;;;;;;;4.13;3.83;;;18.00;57.30;;;;;;5222568;28;20455;-49
2022/07/03 01:28:00;;;;;;;4.03;3.63;;;18.00;57.60;;;;;;5229745;28;20571;-50
2022/07/03 01:30:38;;;;;;;3.57;3.30;;;17.90;57.70;;;;;;5243177;28;20970;-52
2022/07/03 01:33:15;;;;;;;3.80;3.50;;;17.90;57.80;;;;;;5224856;28;20838;-48
2022/07/03 01:35:59;;;;;;;3.07;2.97;;;17.90;58.10;;;;;;5236094;28;20555;-49
2022/07/03 01:38:36;;;;;;;3.27;2.80;;;17.90;58.20;;;;;;5225604;28;20429;-48
2022/07/03 01:41:09;;;;;;;3.90;3.50;;;17.80;58.30;;;;;;5242577;28;20939;-48
2022/07/03 01:43:48;;;;;;;3.87;3.60;;;17.80;58.40;;;;;;5236806;28;20494;-52
2022/07/03 01:46:26;;;;;;;4.03;3.70;;;17.80;58.70;;;;;;5233619;28;20820;-49
2022/07/03 01:48:59;;;;;;;3.10;3.00;;;17.70;58.80;;;;;;5224254;28;20442;-51
2022/07/03 01:51:30;;;;;;;4.13;3.83;;;17.70;59.00;;;;;;5225161;28;20452;-49
2022/07/03 01:54:03;;;;;;;4.07;3.77;;;17.70;59.20;;;;;;5235512;28;20468;-49
2022/07/03 01:56:34;;;;;;;4.70;4.20;;;17.70;59.40;;;;;;5224737;28;20977;-49
2022/07/03 01:59:05;;;;;;;3.17;3.00;;;17.60;59.60;;;;;;5227566;28;20435;-51
2022/07/03 02:01:57;;;;;;;7.03;3.70;;;17.60;59.80;;;;;;5214395;28;22198;-50
2022/07/03 02:04:51;;;;;;;6.77;4.10;;;17.60;60.10;;;;;;5231720;28;20179;-49
2022/07/03 02:07:47;;;;;;;4.07;3.77;;;17.60;60.50;;;;;;5238121;28;20476;-49
2022/07/03 02:10:23;;;;;;;4.13;3.83;;;17.50;60.90;;;;;;5235980;28;20529;-50
2022/07/03 02:13:02;;;;;;;3.87;3.53;;;17.60;61.40;;;;;;5240424;28;20808;-50
2022/07/03 02:15:34;;;;;;;4.20;3.80;;;17.50;61.80;;;;;;5242713;28;20828;-49
2022/07/03 02:18:14;;;;;;;3.40;3.10;;;17.50;62.30;;;;;;5222185;28;20472;-48
2022/07/03 02:20:52;;;;;;;4.30;4.00;;;17.50;62.80;;;;;;5220144;28;20433;-50
2022/07/03 02:23:28;;;;;;;3.83;3.50;;;17.50;63.20;;;;;;5240695;28;20542;-49
2022/07/03 02:26:03;;;;;;;3.70;3.40;;;17.50;63.80;;;;;;5204236;28;20568;-49
2022/07/03 02:28:55;;;;;;;10.53;4.33;;;17.40;64.30;;;;;;5233056;28;20440;-49
2022/07/03 02:31:27;;;;;;;4.00;3.37;;;17.40;65.00;;;;;;5224678;28;20466;-49
2022/07/03 02:33:59;;;;;;;3.90;3.20;;;17.30;66.20;;;;;;5236150;28;20481;-48
2022/07/03 02:36:33;;;;;;;3.67;3.47;;;17.30;66.20;;;;;;5222235;28;20897;-49
2022/07/03 02:39:08;;;;;;;4.63;4.23;;;17.30;66.90;;;;;;5234127;28;20468;-50
2022/07/03 02:41:46;;;;;;;4.17;3.97;;;17.30;67.70;;;;;;5235860;28;20955;-49
2022/07/03 02:44:23;;;;;;;3.53;3.43;;;17.30;68.90;;;;;;5243005;28;20459;-50
2022/07/03 02:47:14;;;;;;;6.40;3.60;;;17.20;70.40;;;;;;5224010;28;20507;-50
2022/07/03 02:50:06;;;;;;;8.33;3.70;;;17.30;70.80;;;;;;5225943;28;21011;-49
2022/07/03 02:52:42;;;;;;;7.87;3.40;;;17.20;72.00;;;;;;5208779;28;20476;-48
2022/07/03 02:55:38;;;;;;;4.00;3.80;;;17.20;72.50;;;;;;5225574;28;20459;-50
2022/07/03 02:58:28;;;;;;;6.27;3.57;;;17.20;73.80;;;;;;5221337;28;20476;-47
2022/07/03 03:01:11;;;;;;;4.17;3.77;;;17.30;75.00;;;;;;5241324;28;20470;-49
2022/07/03 03:04:01;;;;;;;6.00;3.97;;;17.30;75.20;;;;;;5238756;28;20451;-49
2022/07/03 03:06:35;;;;;;;4.23;3.83;;;17.20;75.40;;;;;;5237020;28;20853;-50
2022/07/03 03:09:09;;;;;;;3.83;3.53;;;17.20;76.10;;;;;;5224591;28;20591;-50
2022/07/03 03:11:45;;;;;;;3.63;3.43;;;17.20;77.30;;;;;;5222141;28;20448;-49
2022/07/03 03:14:20;;;;;;;4.17;3.87;;;17.20;78.50;;;;;;5241619;28;20448;-49
2022/07/03 03:16:53;;;;;;;4.40;4.10;;;17.20;78.50;;;;;;5220701;28;20469;-49
2022/07/03 03:19:24;;;;;;;5.00;4.53;;;17.20;79.30;;;;;;5222362;28;20441;-50
2022/07/03 03:22:10;;;;;;;4.80;3.87;;;17.20;79.80;;;;;;5241796;28;20590;-49
2022/07/03 03:24:41;;;;;;;3.70;3.40;;;17.20;81.40;;;;;;5224371;28;20467;-51
2022/07/03 03:27:12;;;;;;;3.97;3.77;;;17.20;81.10;;;;;;5226058;28;20468;-48
2022/07/03 03:29:43;;;;;;;8.43;3.73;;;17.20;81.40;;;;;;5220721;28;20717;-47
2022/07/03 03:32:16;;;;;;;3.47;3.27;;;17.30;81.70;;;;;;5231417;28;20461;-46
2022/07/03 03:34:47;;;;;;;3.90;3.70;;;17.30;82.10;;;;;;5238064;28;20183;-48
2022/07/03 03:37:18;;;;;;;4.20;4.00;;;17.30;82.50;;;;;;5238072;28;20968;-47
2022/07/03 03:39:48;;;;;;;4.33;3.87;;;17.30;82.70;;;;;;5240569;28;20500;-49
2022/07/03 03:42:19;;;;;;;4.00;3.60;;;17.40;83.20;;;;;;5239133;28;20248;-48
2022/07/03 03:44:49;;;;;;;4.83;3.30;;;17.40;83.60;;;;;;5241118;28;20191;-48
2022/07/03 03:47:20;;;;;;;4.20;3.90;;;17.40;83.50;;;;;;5227619;28;20201;-48
2022/07/03 03:49:50;;;;;;;4.00;3.70;;;17.40;83.70;;;;;;5221235;28;20271;-48
2022/07/03 03:52:21;;;;;;;3.63;3.43;;;17.50;84.50;;;;;;5229939;28;20729;-47
2022/07/03 03:54:52;;;;;;;7.63;3.87;;;17.50;83.50;;;;;;5226731;28;20261;-49
2022/07/03 03:57:24;;;;;;;4.17;3.87;;;17.60;83.70;;;;;;5222950;28;20178;-47
2022/07/03 03:59:56;;;;;;;4.30;4.00;;;17.60;83.50;;;;;;5218858;28;20186;-47
2022/07/03 04:02:27;;;;;;;6.27;3.93;;;17.60;82.90;;;;;;5236272;28;20475;-53
2022/07/03 04:04:58;;;;;;;2.87;2.67;;;17.60;82.90;;;;;;5213740;28;20437;-48
2022/07/03 04:07:28;;;;;;;4.10;3.80;;;17.70;82.80;;;;;;5226660;28;20194;-49
2022/07/03 04:09:59;;;;;;;4.03;3.73;;;17.80;82.60;;;;;;5224216;28;20205;-49
2022/07/03 04:12:29;;;;;;;4.50;4.20;;;17.80;83.20;;;;;;5239852;28;20248;-50
2022/07/03 04:15:00;;;;;;;6.13;3.60;;;17.80;82.60;;;;;;5225553;28;20551;-47
2022/07/03 04:17:31;;;;;;;3.17;2.97;;;17.90;82.70;;;;;;5239357;28;20213;-51
2022/07/03 04:20:01;;;;;;;3.23;3.00;;;18.00;82.20;;;;;;5237885;28;20194;-47
2022/07/03 04:22:32;;;;;;;4.07;3.73;;;18.10;81.10;;;;;;5236457;28;20945;-47
2022/07/03 04:25:03;;;;;;;3.87;3.50;;;18.30;80.90;;;;;;5212188;28;20210;-55
2022/07/03 04:27:33;;;;;;;4.90;4.27;;;18.50;79.90;;;;;;5239350;28;20378;-50
2022/07/03 04:30:09;;;;;;;3.90;3.70;;;18.60;79.10;;;;;;5221221;28;20217;-57
2022/07/03 04:32:40;;;;;;;3.97;3.63;;;18.80;78.50;;;;;;5225137;28;20214;-48
2022/07/03 04:35:11;;;;;;;3.40;3.20;;;19.00;77.20;;;;;;5235219;28;20484;-52
2022/07/03 04:37:43;;;;;;;3.97;3.57;;;19.30;75.80;;;;;;5223084;28;20982;-48
2022/07/03 04:40:13;;;;;;;6.47;4.00;;;19.50;75.00;;;;;;5227574;28;20432;-48
2022/07/03 04:42:44;;;;;;;4.17;3.87;;;19.70;73.70;;;;;;5238163;28;20440;-49
2022/07/03 04:45:15;;;;;;;5.33;3.60;;;20.00;73.00;;;;;;5218161;28;20205;-49
2022/07/03 04:47:45;;;;;;;3.30;3.00;;;20.30;70.60;;;;;;5222688;28;20178;-49
2022/07/03 04:50:16;;;;;;;3.67;3.37;;;20.80;68.80;;;;;;5222899;28;20573;-48
2022/07/03 04:52:46;;;;;;;5.07;4.03;;;21.70;66.50;;;;;;5233941;28;20857;-49
2022/07/03 04:55:17;;;;;;;3.53;3.33;;;22.10;63.60;;;;;;5226470;28;20275;-47
2022/07/03 04:57:47;;;;;;;12.13;3.93;;;22.40;61.20;;;;;;5234004;28;20179;-48
2022/07/03 05:00:18;;;;;;;3.63;3.33;;;22.30;61.00;;;;;;5236026;28;20642;-49
2022/07/03 05:02:49;;;;;;;4.00;3.70;;;22.30;60.20;;;;;;5227369;28;20562;-48
2022/07/03 05:05:19;;;;;;;3.60;3.40;;;22.20;59.90;;;;;;5239924;28;20215;-54
2022/07/03 05:07:50;;;;;;;4.10;3.70;;;22.70;59.40;;;;;;5224164;28;20267;-47
2022/07/03 05:10:20;;;;;;;2.93;2.77;;;23.30;57.70;;;;;;5220710;28;20670;-48
2022/07/03 05:12:51;;;;;;;3.40;3.30;;;24.20;55.80;;;;;;5225128;28;20343;-48
2022/07/03 05:15:23;;;;;;;10.63;3.33;;;25.00;53.20;;;;;;5222948;28;20692;-51
2022/07/03 05:17:53;;;;;;;6.30;3.17;;;25.60;51.50;;;;;;5222410;28;20190;-47
2022/07/03 05:20:24;;;;;;;3.40;3.20;;;26.40;48.90;;;;;;5223862;28;20444;-48
2022/07/03 05:22:56;;;;;;;10.40;2.90;;;27.20;47.10;;;;;;5242000;28;20617;-52
2022/07/03 05:25:29;;;;;;;4.90;2.93;;;28.20;45.30;;;;;;5233871;28;20214;-51
2022/07/03 05:28:02;;;;;;;2.47;2.37;;;29.30;42.90;;;;;;5232980;28;20449;-48
2022/07/03 05:30:32;;;;;;;2.47;2.37;;;30.70;40.10;;;;;;5241195;28;20432;-49
2022/07/03 05:33:03;;;;;;;2.30;2.20;;;31.90;37.60;;;;;;5240823;28;20588;-47
2022/07/03 05:35:33;;;;;;;2.03;2.03;;;33.30;35.70;;;;;;5241106;28;20194;-48
2022/07/03 05:38:04;;;;;;;2.10;1.80;;;34.30;32.60;;;;;;5240612;28;20213;-49
2022/07/03 05:40:34;;;;;;;4.13;2.60;;;35.00;31.50;;;;;;5239265;28;20189;-49
2022/07/03 05:43:05;;;;;;;2.00;2.00;;;35.40;30.40;;;;;;5241970;28;20200;-48
2022/07/03 05:45:37;;;;;;;3.00;2.13;;;35.40;30.00;;;;;;5244556;28;20205;-47
2022/07/03 05:48:07;;;;;;;3.60;3.30;;;35.50;29.60;;;;;;5227519;28;20190;-48
2022/07/03 05:50:38;;;;;;;10.53;2.30;;;35.40;29.60;;;;;;5229754;28;20192;-48
2022/07/03 05:53:09;;;;;;;2.10;1.90;;;35.10;29.40;;;;;;5233287;28;20217;-47
2022/07/03 05:55:40;;;;;;;2.53;2.30;;;34.80;29.70;;;;;;5237151;28;20271;-46
2022/07/03 05:58:10;;;;;;;1.40;1.40;;;35.50;29.40;;;;;;5220509;28;20189;-49
2022/07/03 06:00:42;;;;;;;1.60;1.50;;;36.60;28.50;;;;;;5240492;28;20186;-52
2022/07/03 06:03:12;;;;;;;1.95;1.70;;;37.50;27.50;;;;;;5245096;28;20886;-47
2022/07/03 06:05:43;;;;;;;3.83;2.65;;;38.10;26.80;;;;;;5242956;28;20221;-48
2022/07/03 06:08:14;;;;;;;1.73;1.63;;;38.50;26.20;;;;;;5240185;28;20201;-48
2022/07/03 06:10:44;;;;;;;2.10;2.00;;;38.80;26.30;;;;;;5227410;28;20197;-47
2022/07/03 06:13:15;;;;;;;2.15;2.05;;;39.40;25.90;;;;;;5221611;28;20206;-48
2022/07/03 06:15:46;;;;;;;2.13;2.03;;;40.00;24.90;;;;;;5244844;28;20540;-50
2022/07/03 06:18:17;;;;;;;4.20;2.08;;;39.40;24.40;;;;;;5232236;28;20185;-48
2022/07/03 06:20:47;;;;;;;2.25;1.85;;;39.20;25.10;;;;;;5239404;28;20186;-48
2022/07/03 06:23:18;;;;;;;1.75;1.75;;;38.80;25.10;;;;;;5240650;28;20189;-47
2022/07/03 06:25:48;;;;;;;6.22;2.58;;;39.00;25.00;;;;;;5220883;28;20248;-47
2022/07/03 06:28:19;;;;;;;1.85;1.80;;;38.30;24.70;;;;;;5231535;28;20263;-45
2022/07/03 06:30:50;;;;;;;1.48;1.48;;;37.60;25.60;;;;;;5220584;28;20201;-54
2022/07/03 06:33:21;;;;;;;1.80;1.73;;;38.00;25.60;;;;;;5236032;28;20213;-50
2022/07/03 06:35:52;;;;;;;1.40;1.40;;;38.60;25.20;;;;;;5239072;28;20285;-47
2022/07/03 06:38:23;;;;;;;3.00;1.38;;;39.20;24.80;;;;;;5239720;28;20609;-49
2022/07/03 06:40:53;;;;;;;2.13;1.75;;;40.00;24.40;;;;;;5220218;28;20208;-48
2022/07/03 06:43:24;;;;;;;2.38;2.20;;;40.90;23.90;;;;;;5237935;28;20181;-51
2022/07/03 06:45:54;;;;;;;1.50;1.50;;;40.50;23.10;;;;;;5231073;28;20205;-47
2022/07/03 06:48:25;;;;;;;2.20;1.85;;;39.80;23.50;;;;;;5238268;28;20183;-50
2022/07/03 06:50:55;;;;;;;1.73;1.63;;;39.60;23.60;;;;;;5222151;28;20192;-48
2022/07/03 06:53:26;;;;;;;4.55;2.05;;;38.80;24.50;;;;;;5206766;28;20225;-48
2022/07/03 06:55:57;;;;;;;2.97;2.08;;;37.40;25.20;;;;;;5230779;28;20210;-47
2022/07/03 06:58:27;;;;;;;1.60;1.60;;;36.50;26.20;;;;;;5213439;28;20194;-48
2022/07/03 07:00:58;;;;;;;2.00;1.90;;;35.90;26.90;;;;;;5237045;28;20712;-47
2022/07/03 07:03:28;;;;;;;1.77;1.67;;;35.90;27.00;;;;;;5237605;28;20201;-48
2022/07/03 07:05:59;;;;;;;1.90;1.77;;;36.60;26.60;;;;;;5235967;28;20318;-53
2022/07/03 07:08:30;;;;;;;2.00;1.83;;;37.10;25.90;;;;;;5226698;28;20668;-54
2022/07/03 07:11:01;;;;;;;2.58;1.73;;;37.70;25.70;;;;;;5229863;28;20202;-49
2022/07/03 07:13:32;;;;;;;6.90;1.92;;;38.00;25.10;;;;;;5230933;28;20293;-49
2022/07/03 07:16:03;;;;;;;1.90;1.80;;;37.80;25.00;;;;;;5237577;28;20334;-49
2022/07/03 07:18:34;;;;;;;1.75;1.75;;;37.70;25.50;;;;;;5215505;28;20191;-47
2022/07/03 07:21:04;;;;;;;1.58;1.48;;;37.70;25.50;;;;;;5233690;28;20186;-54
2022/07/03 07:23:35;;;;;;;2.28;1.77;;;37.60;25.30;;;;;;5223776;28;20185;-49
2022/07/03 07:26:07;;;;;;;1.92;1.83;;;37.80;25.70;;;;;;5214747;28;20272;-54
2022/07/03 07:28:37;;;;;;;2.47;2.38;;;38.10;24.90;;;;;;5210441;28;20239;-49
2022/07/03 07:31:08;;;;;;;5.57;1.80;;;38.60;24.80;;;;;;5213002;28;20193;-46
2022/07/03 07:33:39;;;;;;;2.20;2.00;;;38.50;24.50;;;;;;5235942;28;20240;-56
2022/07/03 07:36:09;;;;;;;2.28;2.17;;;39.20;24.50;;;;;;5223892;28;20681;-53
2022/07/03 07:38:40;;;;;;;2.95;1.77;;;40.20;24.00;;;;;;5224693;28;20644;-55
2022/07/03 07:41:11;;;;;;;3.25;2.13;;;39.80;23.60;;;;;;5234256;28;20181;-47
2022/07/03 07:43:41;;;;;;;1.92;1.73;;;39.10;23.60;;;;;;5227893;28;20185;-46
2022/07/03 07:46:12;;;;;;;1.80;1.80;;;38.50;24.60;;;;;;5232939;28;20577;-48
2022/07/03 07:48:42;;;;;;;5.32;2.15;;;37.70;24.80;;;;;;5237369;28;20178;-56
2022/07/03 07:51:13;;;;;;;2.38;1.50;;;37.70;25.50;;;;;;5227539;28;20196;-49
2022/07/03 07:53:44;;;;;;;2.83;2.05;;;37.60;25.10;;;;;;5218665;28;20237;-46
2022/07/03 07:56:15;;;;;;;5.37;1.43;;;37.10;25.50;;;;;;5222304;28;20216;-48
2022/07/03 07:58:45;;;;;;;1.50;1.50;;;36.80;25.90;;;;;;5231427;28;20637;-48
2022/07/03 08:06:54;;;;;;;7.53;1.60;;;37.00;25.60;;;;;;5235267;28;20212;-49
2022/07/03 08:09:25;;;;;;;1.80;1.73;;;37.00;25.50;;;;;;5215673;28;20178;-51
2022/07/03 08:11:55;;;;;;;2.83;2.00;;;36.70;25.40;;;;;;5223507;28;20190;-47
2022/07/03 08:14:26;;;;;;;1.67;1.37;;;37.30;25.40;;;;;;5223467;28;20170;-48
2022/07/03 08:16:57;;;;;;;6.35;1.88;;;38.00;25.10;;;;;;5244526;28;20734;-46
2022/07/03 08:19:27;;;;;;;1.90;1.80;;;38.00;24.20;;;;;;5231762;28;20178;-47
2022/07/03 08:21:58;;;;;;;1.80;1.70;;;38.00;24.90;;;;;;5217551;28;22500;-47
2022/07/03 08:24:29;;;;;;;1.80;1.80;;;38.40;24.10;;;;;;5233610;28;20672;-51
2022/07/03 08:26:59;;;;;;;2.65;1.90;;;39.30;23.90;;;;;;5237657;28;20225;-47
2022/07/03 08:29:30;;;;;;;1.65;1.50;;;39.70;23.10;;;;;;5236310;28;20240;-48
2022/07/03 08:32:01;;;;;;;2.45;2.22;;;38.60;23.40;;;;;;5224500;28;20626;-46
2022/07/03 08:34:31;;;;;;;11.77;1.90;;;37.10;24.40;;;;;;5240000;28;20707;-47
2022/07/03 08:37:02;;;;;;;4.73;2.50;;;35.90;25.40;;;;;;5221560;28;20269;-48
2022/07/03 08:39:33;;;;;;;2.40;2.30;;;35.40;26.10;;;;;;5229266;28;20231;-51
2022/07/03 08:42:06;;;;;;;1.90;1.80;;;35.00;26.40;;;;;;5242326;28;20927;-47
2022/07/03 08:44:37;;;;;;;2.23;2.00;;;35.30;26.90;;;;;;5224167;28;20269;-47
2022/07/03 08:47:10;;;;;;;2.90;1.63;;;35.80;26.60;;;;;;5239946;28;20210;-51
2022/07/03 08:49:42;;;;;;;1.70;1.70;;;36.90;25.50;;;;;;5223290;28;20173;-46
2022/07/03 08:52:13;;;;;;;1.80;1.70;;;37.60;24.70;;;;;;5222106;28;20272;-47
2022/07/03 08:54:44;;;;;;;1.77;1.73;;;37.10;25.00;;;;;;5233859;28;20174;-51
2022/07/03 08:57:15;;;;;;;1.87;1.73;;;35.60;26.30;;;;;;5243129;28;20208;-48
2022/07/03 08:59:52;;;;;;;1.67;1.60;;;33.70;28.10;;;;;;5224609;28;20193;-49
2022/07/03 09:02:23;;;;;;;4.30;2.03;;;32.20;29.60;;;;;;5224990;28;20200;-48
2022/07/03 09:04:54;;;;;;;4.50;1.80;;;31.20;31.10;;;;;;5221192;28;20505;-52
2022/07/03 09:07:27;;;;;;;2.10;1.87;;;30.30;32.00;;;;;;5235014;28;20427;-45
2022/07/03 09:09:58;;;;;;;3.63;1.90;;;29.20;33.80;;;;;;5221945;28;20277;-48
2022/07/03 09:12:33;;;;;;;2.30;2.13;;;28.70;34.50;;;;;;5234515;28;20542;-45
2022/07/03 09:15:06;;;;;;;5.03;1.70;;;28.40;34.90;;;;;;5243095;28;20220;-47
2022/07/03 09:17:37;;;;;;;2.27;2.17;;;28.30;35.10;;;;;;5244615;28;20504;-48
2022/07/03 09:20:08;;;;;;;1.97;1.87;;;28.50;35.30;;;;;;5245924;28;20528;-47
2022/07/03 09:22:39;;;;;;;1.80;1.70;;;28.40;35.30;;;;;;5242489;28;20514;-47
2022/07/03 09:27:52;;;;;;;2.70;2.50;;;28.60;34.40;;;;;;5241834;28;20252;-52
2022/07/03 09:30:23;;;;;;;2.37;2.17;;;28.70;34.40;;;;;;5234524;28;20424;-50
2022/07/03 09:32:53;;;;;;;1.60;1.60;;;28.70;35.10;;;;;;5240945;28;20878;-50
2022/07/03 09:35:26;;;;;;;1.70;1.60;;;28.60;35.10;;;;;;5239889;28;20190;-51
2022/07/03 09:37:58;;;;;;;1.50;1.40;;;28.70;34.60;;;;;;5246856;28;20190;-54
2022/07/03 09:40:52;;;;;;;1.93;1.83;;;28.50;34.40;;;;;;5206357;28;20976;-53
2022/07/03 09:43:24;;;;;;;1.70;1.60;;;28.10;35.00;;;;;;5226330;28;20490;-53
2022/07/03 09:45:57;;;;;;;1.90;1.77;;;27.80;34.90;;;;;;5228893;28;20503;-53
2022/07/03 09:48:36;;;;;;;5.20;1.93;;;27.80;35.40;;;;;;5226473;28;20936;-52
2022/07/03 09:51:23;;;;;;;1.70;1.60;;;27.70;35.40;;;;;;5223636;28;20630;-50
2022/07/03 09:53:59;;;;;;;1.83;1.80;;;27.60;35.60;;;;;;5215939;28;20481;-50
2022/07/03 09:56:37;;;;;;;2.00;1.73;;;27.50;35.50;;;;;;5232713;28;20692;-52
2022/07/03 09:59:12;;;;;;;1.83;1.70;;;27.20;36.00;;;;;;5239787;28;20533;-52
2022/07/03 10:01:45;;;;;;;2.10;2.00;;;27.10;36.30;;;;;;5246407;28;20451;-50
2022/07/03 10:04:22;;;;;;;3.90;1.80;;;27.20;36.90;;;;;;5244869;28;20928;-53
2022/07/03 10:06:56;;;;;;;1.53;1.43;;;27.50;36.90;;;;;;5222781;28;20467;-55
2022/07/03 10:09:31;;;;;;;5.47;3.27;;;27.70;36.40;;;;;;5198335;28;20437;-52
2022/07/03 10:12:03;;;;;;;1.80;1.70;;;28.00;35.70;;;;;;5242731;28;20439;-51
2022/07/03 10:14:34;;;;;;;1.90;1.80;;;28.20;35.60;;;;;;5228231;28;20493;-54
2022/07/03 10:17:06;;;;;;;2.13;2.03;;;28.30;35.50;;;;;;5249751;28;20464;-52
2022/07/03 10:19:40;;;;;;;1.77;1.67;;;28.50;35.40;;;;;;5223717;28;20199;-53
2022/07/03 10:22:21;;;;;;;1.63;1.63;;;28.60;34.90;;;;;;5222116;28;20449;-53
2022/07/03 10:24:52;;;;;;;2.00;1.90;;;28.70;35.20;;;;;;5243366;28;20451;-50
2022/07/03 10:27:23;;;;;;;1.87;1.70;;;28.60;34.80;;;;;;5224050;28;20513;-52
2022/07/03 10:29:55;;;;;;;2.87;1.80;;;28.60;34.90;;;;;;5227585;28;20975;-52
2022/07/03 10:32:27;;;;;;;2.50;1.33;;;28.50;35.10;;;;;;5242775;28;20468;-52
2022/07/03 10:34:58;;;;;;;2.20;1.73;;;28.40;35.60;;;;;;5234526;28;20540;-51
2022/07/03 10:37:41;;;;;;;1.60;1.60;;;28.40;35.80;;;;;;5238114;28;20548;-51
2022/07/03 10:46:28;;;;;;;2.03;1.80;;;28.00;35.20;;;;;;5234553;28;20935;-50
2022/07/03 10:49:11;;;;;;;1.70;1.70;;;27.80;36.20;;;;;;5241631;28;20430;-55
2022/07/03 10:51:45;;;;;;;2.00;1.90;;;27.70;36.40;;;;;;5242851;28;20431;-53
2022/07/03 10:54:26;;;;;;;1.40;1.33;;;27.80;36.80;;;;;;5244628;28;20809;-53
2022/07/03 10:57:02;;;;;;;3.50;1.40;;;28.00;36.90;;;;;;5239194;28;20492;-52
2022/07/03 10:59:36;;;;;;;1.40;1.40;;;28.00;36.30;;;;;;5236801;28;20912;-52
2022/07/03 11:02:38;;;;;;;2.20;2.00;;;28.00;36.20;;;;;;5225813;28;20864;-55
2022/07/03 11:05:12;;;;;;;1.70;1.70;;;28.00;36.40;;;;;;5234522;28;20526;-52
2022/07/03 11:07:53;;;;;;;4.33;1.93;;;28.00;36.90;;;;;;5220886;28;20442;-53
2022/07/03 11:10:23;;;;;;;1.50;1.50;;;28.00;37.20;;;;;;5222114;28;20523;-53
2022/07/03 11:12:58;;;;;;;1.63;1.63;;;28.10;36.60;;;;;;5242742;28;20773;-51
2022/07/03 11:15:45;;;;;;;2.03;1.57;;;28.10;37.10;;;;;;5227356;28;20214;-53
2022/07/03 11:18:18;;;;;;;2.27;2.20;;;28.10;36.60;;;;;;5244168;28;20965;-52
2022/07/03 11:20:51;;;;;;;2.27;1.80;;;28.00;37.00;;;;;;5225570;28;20436;-52
2022/07/03 11:23:25;;;;;;;1.77;1.70;;;28.00;37.00;;;;;;5224585;28;20501;-53
2022/07/03 11:26:04;;;;;;;2.10;2.00;;;28.10;37.20;;;;;;5221887;28;20570;-53
2022/07/03 11:28:35;;;;;;;1.67;1.67;;;28.30;36.60;;;;;;5222128;28;20445;-52
2022/07/03 11:31:15;;;;;;;4.50;1.80;;;28.30;36.50;;;;;;5217618;28;20920;-51
2022/07/03 11:33:50;;;;;;;1.17;1.17;;;28.20;36.80;;;;;;5234527;28;20205;-54
2022/07/03 11:36:28;;;;;;;2.77;1.80;;;28.30;36.30;;;;;;5223123;28;20452;-52
2022/07/03 11:38:58;;;;;;;1.43;1.37;;;28.40;36.20;;;;;;5231973;28;20471;-52
2022/07/03 11:41:41;;;;;;;1.53;1.53;;;28.60;35.90;;;;;;5238726;28;20441;-49
2022/07/03 11:44:20;;;;;;;1.80;1.70;;;28.40;35.70;;;;;;5226966;28;20253;-51
2022/07/03 11:46:51;;;;;;;1.60;1.60;;;28.30;36.50;;;;;;5239815;28;20464;-50
2022/07/03 11:49:24;;;;;;;1.60;1.60;;;28.30;36.50;;;;;;5219252;28;20441;-53
2022/07/03 11:51:58;;;;;;;1.07;1.07;;;28.40;36.60;;;;;;5239876;28;20444;-52
2022/07/03 11:54:48;;;;;;;2.30;2.20;;;28.40;35.80;;;;;;5222418;28;20460;-51
2022/07/03 11:57:20;;;;;;;1.93;1.83;;;28.20;36.00;;;;;;5239819;28;20513;-50
2022/07/03 12:00:02;;;;;;;7.97;2.00;;;28.10;36.10;;;;;;5193244;28;20445;-50
2022/07/03 12:02:47;;;;;;;1.53;1.53;;;28.20;36.20;;;;;;5234529;28;21035;-51
2022/07/03 12:05:18;;;;;;;1.47;1.47;;;28.30;36.00;;;;;;5233807;28;20468;-50
2022/07/03 12:08:05;;;;;;;2.50;2.10;;;28.40;35.70;;;;;;5217840;28;20949;-51
2022/07/03 12:10:40;;;;;;;1.40;1.40;;;28.60;35.50;;;;;;5219187;28;20221;-53
2022/07/03 12:13:22;;;;;;;1.60;1.50;;;28.70;35.10;;;;;;5213062;28;20873;-52
2022/07/03 12:15:53;;;;;;;4.10;1.97;;;28.70;35.20;;;;;;5235240;28;20903;-55
2022/07/03 12:18:24;;;;;;;2.40;2.20;;;28.60;34.90;;;;;;5224360;28;20471;-50
2022/07/03 12:20:54;;;;;;;1.47;1.47;;;28.50;35.30;;;;;;5235927;28;20258;-51
2022/07/03 12:23:26;;;;;;;1.70;1.70;;;28.50;35.10;;;;;;5242734;28;20186;-51
2022/07/03 12:25:57;;;;;;;2.07;1.97;;;28.60;35.30;;;;;;5189680;28;20328;-51
2022/07/03 12:28:27;;;;;;;2.00;1.90;;;28.70;34.70;;;;;;5241480;28;20911;-50
2022/07/03 12:30:58;;;;;;;2.17;1.97;;;28.70;35.00;;;;;;5241873;28;20186;-54
2022/07/03 12:33:30;;;;;;;1.63;1.53;;;28.90;35.00;;;;;;5239546;28;20224;-52
2022/07/03 12:36:08;;;;;;;1.80;1.70;;;29.00;33.90;;;;;;5222247;28;20221;-55
2022/07/03 12:38:40;;;;;;;2.10;2.10;;;28.80;34.30;;;;;;5225764;28;20437;-50
2022/07/03 12:41:10;;;;;;;3.80;1.30;;;28.70;35.00;;;;;;5237387;28;20444;-51
2022/07/03 12:43:42;;;;;;;1.80;1.70;;;28.90;34.70;;;;;;5233515;28;20441;-50
2022/07/03 12:46:19;;;;;;;2.63;1.30;;;29.00;34.10;;;;;;5209645;28;20946;-54
2022/07/03 12:48:57;;;;;;;1.30;1.30;;;29.30;33.80;;;;;;5222695;28;20452;-52
2022/07/03 12:51:49;;;;;;;1.73;1.73;;;29.60;34.30;;;;;;5222342;28;21069;-51
2022/07/03 12:54:30;;;;;;;1.97;1.97;;;30.10;33.80;;;;;;5229935;28;20464;-54
2022/07/03 13:00:19;;;;;;;2.50;1.00;;;30.50;32.80;;;;;;5184880;28;20443;-50
2022/07/03 13:02:50;;;;;;;1.30;1.30;;;30.70;31.90;;;;;;5241579;28;23233;-53
2022/07/03 13:05:23;;;;;;;4.33;1.83;;;30.80;32.50;;;;;;5242902;28;20445;-53
2022/07/03 13:07:55;;;;;;;1.53;1.53;;;30.70;31.70;;;;;;5226340;28;20181;-53
2022/07/03 13:10:25;;;;;;;6.63;1.90;;;30.80;31.70;;;;;;5226723;28;20458;-51
2022/07/03 13:12:57;;;;;;;1.70;1.70;;;30.50;31.30;;;;;;5244573;28;20570;-52
2022/07/03 13:15:29;;;;;;;1.87;1.20;;;30.10;31.00;;;;;;5222108;28;20181;-50
2022/07/03 13:18:01;;;;;;;1.53;1.53;;;29.80;32.00;;;;;;5249738;28;20431;-51
2022/07/03 13:20:33;;;;;;;3.17;2.97;;;29.40;32.40;;;;;;5237044;28;20471;-50
2022/07/03 13:23:05;;;;;;;2.00;1.90;;;29.40;33.30;;;;;;5224832;28;20497;-51
2022/07/03 13:25:39;;;;;;;1.70;1.70;;;29.60;33.00;;;;;;5243033;28;20456;-49
2022/07/03 13:28:13;;;;;;;1.80;1.70;;;29.60;32.50;;;;;;5246299;28;20436;-51
2022/07/03 13:30:43;;;;;;;1.60;1.50;;;29.80;32.50;;;;;;5239398;28;20424;-50
2022/07/03 13:33:14;;;;;;;5.27;4.47;;;29.80;32.90;;;;;;5234503;28;20831;-52
2022/07/03 13:35:44;;;;;;;3.70;3.30;;;29.80;32.20;;;;;;5221534;28;20542;-50
2022/07/03 13:38:15;;;;;;;4.93;3.30;;;29.60;32.20;;;;;;5242225;28;20205;-51